Carmen — SMGW — position and weather

sailwx.info

Track history (hours):
 
Tides and Currents Weather Stations Pressure Air Temp Water Temp Dewpoint Dewpoint Depression Visibility Wind Speed Wind Dir Waves Ship Positions

Carmen

Last reported at 2016-Feb-12 06:00 UTC. Time now 2016-Feb-12 07:54 UTC.
Position N 45°54' W 021°48'.

Length 228 m; draft 9.9 m.

Type: Cargo ship. MMSI: 266339000.

Wind from 250 at 19 knots

Barometer 1002.2 mb
Air temperature 13.6 ° C
Visibility: greater than 2.2 NM
Water temperature 13.0 ° C

Date/timePositionNaut miles runAvg speedWind from/ knotsBaromVisibWave heightAir tempDewpointWater temp
2016-Feb-12 06:00N 45°54' W 021°48'9616.0 250 / 191002.2 2.2 13.6 13.0
2016-Feb-12 00:00N 46°24' W 019°36'10517.5 270 / 311003.610.8 13.1 12.9
2016-Feb-11 18:00N 47°00' W 017°12'10217.0 250 / 211001.2 2.2 2.512.9 12.3
2016-Feb-11 12:00N 47°30' W 014°48'10717.8 190 / 251003.8 2.2 1.510.7 12.2
2016-Feb-11 06:00N 48°06' W 012°18'21317.7 290 / 171008.110.8 8.4 12.0
2016-Feb-10 18:00N 49°12' W 007°12'18515.4 300 / 251001.210.8 2.0 8.5 11.0
2016-Feb-10 06:00N 50°12' W 002°42'4516.3 290 / 51996.010.8 8.2 10.9
2016-Feb-10 03:14N 50°26' W 001°35'1420.6
2016-Feb-10 02:33N 50°30' W 001°14'1615.5
2016-Feb-10 01:33N 50°42' W 000°59'1313.3
2016-Feb-10 00:33N 50°48' W 001°18'6 6.3
2016-Feb-09 23:33N 50°53' W 001°24'0 0.0
2016-Feb-09 22:33N 50°53' W 001°24'0 0.0
2016-Feb-09 21:33N 50°53' W 001°24'0 0.0
2016-Feb-09 20:33N 50°53' W 001°24'0 0.0
2016-Feb-09 19:30N 50°53' W 001°24'0 0.0
2016-Feb-09 18:30N 50°53' W 001°24'0 0.0
2016-Feb-09 17:33N 50°53' W 001°24'0 0.0
2016-Feb-09 16:33N 50°53' W 001°24'0 0.0
2016-Feb-09 15:33N 50°53' W 001°24'0 0.0
2016-Feb-09 14:27N 50°53' W 001°24'0 0.0
2016-Feb-09 13:33N 50°53' W 001°24'0 0.0
2016-Feb-09 12:33N 50°53' W 001°24'0 0.0
2016-Feb-09 11:33N 50°53' W 001°24'0 0.0
2016-Feb-09 10:09N 50°53' W 001°24'0 0.0
2016-Feb-09 09:33N 50°53' W 001°24'0 0.0
2016-Feb-09 08:30N 50°53' W 001°24'0 0.0
2016-Feb-09 07:33N 50°53' W 001°24'5 4.6
2016-Feb-09 06:33N 50°50' W 001°19'1212.2
2016-Feb-09 05:33N 50°44' W 001°02'8 7.8
2016-Feb-09 04:33N 50°37' W 000°55'2 2.1
2016-Feb-09 03:33N 50°36' W 000°52'1 0.7
2016-Feb-09 02:33N 50°36' W 000°51'1 0.8
2016-Feb-09 01:33N 50°36' W 000°50'1 0.6
2016-Feb-09 00:33N 50°36' W 000°49'2 1.6
2016-Feb-08 23:33N 50°37' W 000°48'1 1.1
2016-Feb-08 22:33N 50°36' W 000°46'1 0.8
2016-Feb-08 21:33N 50°36' W 000°45'2 1.9
2016-Feb-08 20:33N 50°35' W 000°48'2 1.9
2016-Feb-08 19:33N 50°34' W 000°49'3 3.0
2016-Feb-08 18:33N 50°35' W 000°46'1 1.2
2016-Feb-08 17:33N 50°36' W 000°45'1 1.3
2016-Feb-08 16:33N 50°35' W 000°45'1 1.1
2016-Feb-08 15:33N 50°35' W 000°47'1 0.7
2016-Feb-08 14:33N 50°36' W 000°47'1 1.4
2016-Feb-08 13:33N 50°35' W 000°46'1 1.1
2016-Feb-08 12:33N 50°36' W 000°47'1 0.8
2016-Feb-08 11:33N 50°35' W 000°47'1 1.2
2016-Feb-08 10:33N 50°34' W 000°48'5 5.0
2016-Feb-08 09:33N 50°36' W 000°55'4 4.2
2016-Feb-08 08:33N 50°38' W 001°01'0 0.2
2016-Feb-08 07:31N 50°38' W 001°02'0 0.2
2016-Feb-08 06:31N 50°38' W 001°01'0 0.4
2016-Feb-08 05:33N 50°38' W 001°02'1010.0
2016-Feb-08 04:34N 50°37' W 000°46'1211.6
2016-Feb-08 03:34N 50°35' W 000°28'1312.8
2016-Feb-08 02:33N 50°33' W 000°08'1313.1
2016-Feb-08 01:32N 50°35' E 000°13'3711.7
2016-Feb-07 22:24N 50°52' E 001°04'910.2
2016-Feb-07 21:33N 50°58' E 001°15'9 9.3
2016-Feb-07 20:33N 51°04' E 001°26'1111.4
2016-Feb-07 19:33N 51°10' E 001°41'1313.3
2016-Feb-07 18:33N 51°20' E 001°55'9 9.4
2016-Feb-07 17:33N 51°22' E 002°09'1211.6
2016-Feb-07 16:33N 51°22' E 002°28'10 9.4
2016-Feb-07 15:32N 51°23' E 002°43'1313.8
2016-Feb-07 14:33N 51°24' E 003°05'7 6.7
2016-Feb-07 13:33N 51°20' E 003°13'1 1.1
2016-Feb-07 12:33N 51°19' E 003°14'0 0.0
2016-Feb-07 11:33N 51°19' E 003°14'0 0.0
2016-Feb-07 10:33N 51°19' E 003°14'0 0.0
2016-Feb-07 09:33N 51°19' E 003°14'0 0.0
2016-Feb-07 08:33N 51°19' E 003°14'0 0.0
2016-Feb-07 07:33N 51°19' E 003°14'0 0.0
2016-Feb-07 06:33N 51°19' E 003°14'0 0.0
2016-Feb-07 05:33N 51°19' E 003°14'0 0.0
2016-Feb-07 04:33N 51°19' E 003°14'0 0.0
2016-Feb-07 03:33N 51°19' E 003°14'0 0.0
2016-Feb-07 02:33N 51°19' E 003°14'0 0.0
2016-Feb-07 01:33N 51°19' E 003°14'0 0.0
2016-Feb-07 00:33N 51°19' E 003°14'0 0.0
2016-Feb-06 23:33N 51°19' E 003°14'0 0.0
2016-Feb-06 22:33N 51°19' E 003°14'0 0.0
2016-Feb-06 21:33N 51°19' E 003°14'0 0.0
2016-Feb-06 20:33N 51°19' E 003°14'0 0.0
2016-Feb-06 19:33N 51°19' E 003°14'0 0.0
2016-Feb-06 18:33N 51°19' E 003°14'0 0.0
2016-Feb-06 17:33N 51°19' E 003°14'0 0.0
2016-Feb-06 16:33N 51°19' E 003°14'0 0.0
2016-Feb-06 15:33N 51°19' E 003°14'0 0.0
2016-Feb-06 14:33N 51°19' E 003°14'0 0.0
2016-Feb-06 13:33N 51°19' E 003°14'0 0.0
2016-Feb-06 12:33N 51°19' E 003°14'0 0.0
2016-Feb-06 11:33N 51°19' E 003°14'0 0.0
2016-Feb-06 10:33N 51°19' E 003°13'1 1.3
2016-Feb-06 09:33N 51°20' E 003°13'1311.7
2016-Feb-06 08:29N 51°25' E 002°54'9 9.3
2016-Feb-06 07:33N 51°28' E 002°41'4815.7
2016-Feb-06 04:31N 52°14' E 003°03'1717.0
2016-Feb-06 03:32N 52°27' E 003°19'5516.3
2016-Feb-06 00:09N 53°09' E 004°19'3016.6
2016-Feb-05 22:19N 53°36' E 004°40'1316.7
2016-Feb-05 21:33N 53°48' E 004°48'1616.5
2016-Feb-05 20:33N 54°04' E 004°58'1716.3
2016-Feb-05 19:33N 54°18' E 005°12'22416.5
2016-Feb-05 06:00N 57°24' E 008°54'5415.8 290 / 161015.010.8 4.7 7.4
2016-Feb-05 02:33N 57°49' E 010°24'1515.3
2016-Feb-05 01:33N 57°48' E 010°53'1616.5
2016-Feb-05 00:34N 57°39' E 011°18'1212.1
2016-Feb-04 23:34N 57°37' E 011°41'7 7.3
2016-Feb-04 22:33N 57°41' E 011°52'0 0.0
2016-Feb-04 21:29N 57°41' E 011°52'0 0.0
2016-Feb-04 20:32N 57°41' E 011°52'0 0.0
2016-Feb-04 19:32N 57°41' E 011°52'0 0.0
2016-Feb-04 18:32N 57°41' E 011°52'0 0.0
2016-Feb-04 17:32N 57°41' E 011°52'0 0.0
2016-Feb-04 16:32N 57°41' E 011°52'0 0.0
2016-Feb-04 15:32N 57°41' E 011°52'0 0.0
2016-Feb-04 14:32N 57°41' E 011°52'0 0.0
2016-Feb-04 13:32N 57°41' E 011°52'0 0.0
2016-Feb-04 12:31N 57°41' E 011°52'0 0.0
2016-Feb-04 11:31N 57°41' E 011°52'0 0.0
2016-Feb-04 10:31N 57°41' E 011°52'0 0.0
2016-Feb-04 09:31N 57°41' E 011°52'0 0.0
2016-Feb-04 08:31N 57°41' E 011°52'0 0.0
2016-Feb-04 07:31N 57°41' E 011°52'0 0.0
2016-Feb-04 06:31N 57°41' E 011°52'0 0.0
2016-Feb-04 05:31N 57°41' E 011°52'0 0.0
2016-Feb-04 04:33N 57°41' E 011°52'6 6.1
2016-Feb-04 03:34N 57°38' E 011°42'1110.8
2016-Feb-04 02:33N 57°40' E 011°22'1514.6
2016-Feb-04 01:33N 57°49' E 010°60'1212.0
2016-Feb-04 00:33N 57°51' E 010°38'16512.7
2016-Feb-03 11:34N 55°50' E 007°16'1514.3
2016-Feb-03 10:32N 55°36' E 007°07'1515.5
2016-Feb-03 09:33N 55°21' E 007°01'1716.5
2016-Feb-03 08:33N 55°05' E 007°05'1616.2
2016-Feb-03 07:33N 54°49' E 007°12'1616.1
2016-Feb-03 06:33N 54°34' E 007°20'1017.4
2016-Feb-03 06:00N 54°24' E 007°24'612.8 260 / 331002.610.8 6.0 7.1
2016-Feb-03 05:33N 54°19' E 007°27'1514.8
2016-Feb-03 04:33N 54°05' E 007°36'1413.6
2016-Feb-03 03:33N 53°53' E 007°47'8 8.3
2016-Feb-03 02:33N 53°51' E 008°01'1111.5
2016-Feb-03 01:33N 53°44' E 008°15'1413.5
2016-Feb-03 00:33N 53°34' E 008°32'1 0.7
2016-Feb-02 23:33N 53°35' E 008°33'0 0.0
2016-Feb-02 22:31N 53°35' E 008°33'0 0.0
2016-Feb-02 21:31N 53°35' E 008°33'0 0.0
2016-Feb-02 20:31N 53°35' E 008°33'0 0.0
2016-Feb-02 19:31N 53°35' E 008°33'0 0.0
2016-Feb-02 18:28N 53°35' E 008°33'0 0.0
2016-Feb-02 17:31N 53°35' E 008°33'0 0.0
2016-Feb-02 16:31N 53°35' E 008°33'0 0.0
2016-Feb-02 15:31N 53°35' E 008°33'0 0.0
2016-Feb-02 14:31N 53°35' E 008°33'0 0.0
2016-Feb-02 13:31N 53°35' E 008°33'0 0.0
2016-Feb-02 12:31N 53°35' E 008°33'0 0.0
2016-Feb-02 11:31N 53°35' E 008°33'0 0.0
2016-Feb-02 10:31N 53°35' E 008°33'0 0.0
2016-Feb-02 09:31N 53°35' E 008°33'0 0.0
2016-Feb-02 08:31N 53°35' E 008°33'0 0.0
2016-Feb-02 07:31N 53°35' E 008°33'0 0.0
2016-Feb-02 06:31N 53°35' E 008°33'  
Track history (hours):
 
Tides and Currents Weather Stations Pressure Air Temp Water Temp Dewpoint Dewpoint Depression Visibility Wind Speed Wind Dir Waves Ship Positions

Carmen

Last reported at 2016-Feb-12 06:00 UTC. Time now 2016-Feb-12 07:54 UTC.
Position N 45°54' W 021°48'.

Length 228 m; draft 9.9 m.

Type: Cargo ship. MMSI: 266339000.

Wind from 250 at 19 knots

Barometer 1002.2 mb
Air temperature 13.6 ° C
Visibility: greater than 2.2 NM
Water temperature 13.0 ° C

Date/timePositionNaut miles runAvg speedWind from/ knotsBaromVisibWave heightAir tempDewpointWater temp
2016-Feb-12 06:00N 45°54' W 021°48'9616.0 250 / 191002.2 2.2 13.6 13.0
2016-Feb-12 00:00N 46°24' W 019°36'10517.5 270 / 311003.610.8 13.1 12.9
2016-Feb-11 18:00N 47°00' W 017°12'10217.0 250 / 211001.2 2.2 2.512.9 12.3
2016-Feb-11 12:00N 47°30' W 014°48'10717.8 190 / 251003.8 2.2 1.510.7 12.2
2016-Feb-11 06:00N 48°06' W 012°18'21317.7 290 / 171008.110.8 8.4 12.0
2016-Feb-10 18:00N 49°12' W 007°12'18515.4 300 / 251001.210.8 2.0 8.5 11.0
2016-Feb-10 06:00N 50°12' W 002°42'4516.3 290 / 51996.010.8 8.2 10.9
2016-Feb-10 03:14N 50°26' W 001°35'1420.6
2016-Feb-10 02:33N 50°30' W 001°14'1615.5
2016-Feb-10 01:33N 50°42' W 000°59'1313.3
2016-Feb-10 00:33N 50°48' W 001°18'6 6.3
2016-Feb-09 23:33N 50°53' W 001°24'0 0.0
2016-Feb-09 22:33N 50°53' W 001°24'0 0.0
2016-Feb-09 21:33N 50°53' W 001°24'0 0.0
2016-Feb-09 20:33N 50°53' W 001°24'0 0.0
2016-Feb-09 19:30N 50°53' W 001°24'0 0.0
2016-Feb-09 18:30N 50°53' W 001°24'0 0.0
2016-Feb-09 17:33N 50°53' W 001°24'0 0.0
2016-Feb-09 16:33N 50°53' W 001°24'0 0.0
2016-Feb-09 15:33N 50°53' W 001°24'0 0.0
2016-Feb-09 14:27N 50°53' W 001°24'0 0.0
2016-Feb-09 13:33N 50°53' W 001°24'0 0.0
2016-Feb-09 12:33N 50°53' W 001°24'0 0.0
2016-Feb-09 11:33N 50°53' W 001°24'0 0.0
2016-Feb-09 10:09N 50°53' W 001°24'0 0.0
2016-Feb-09 09:33N 50°53' W 001°24'0 0.0
2016-Feb-09 08:30N 50°53' W 001°24'0 0.0
2016-Feb-09 07:33N 50°53' W 001°24'5 4.6
2016-Feb-09 06:33N 50°50' W 001°19'1212.2
2016-Feb-09 05:33N 50°44' W 001°02'8 7.8
2016-Feb-09 04:33N 50°37' W 000°55'2 2.1
2016-Feb-09 03:33N 50°36' W 000°52'1 0.7
2016-Feb-09 02:33N 50°36' W 000°51'1 0.8
2016-Feb-09 01:33N 50°36' W 000°50'1 0.6
2016-Feb-09 00:33N 50°36' W 000°49'2 1.6
2016-Feb-08 23:33N 50°37' W 000°48'1 1.1
2016-Feb-08 22:33N 50°36' W 000°46'1 0.8
2016-Feb-08 21:33N 50°36' W 000°45'2 1.9
2016-Feb-08 20:33N 50°35' W 000°48'2 1.9
2016-Feb-08 19:33N 50°34' W 000°49'3 3.0
2016-Feb-08 18:33N 50°35' W 000°46'1 1.2
2016-Feb-08 17:33N 50°36' W 000°45'1 1.3
2016-Feb-08 16:33N 50°35' W 000°45'1 1.1
2016-Feb-08 15:33N 50°35' W 000°47'1 0.7
2016-Feb-08 14:33N 50°36' W 000°47'1 1.4
2016-Feb-08 13:33N 50°35' W 000°46'1 1.1
2016-Feb-08 12:33N 50°36' W 000°47'1 0.8
2016-Feb-08 11:33N 50°35' W 000°47'1 1.2
2016-Feb-08 10:33N 50°34' W 000°48'5 5.0
2016-Feb-08 09:33N 50°36' W 000°55'4 4.2
2016-Feb-08 08:33N 50°38' W 001°01'0 0.2
2016-Feb-08 07:31N 50°38' W 001°02'0 0.2
2016-Feb-08 06:31N 50°38' W 001°01'0 0.4
2016-Feb-08 05:33N 50°38' W 001°02'1010.0
2016-Feb-08 04:34N 50°37' W 000°46'1211.6
2016-Feb-08 03:34N 50°35' W 000°28'1312.8
2016-Feb-08 02:33N 50°33' W 000°08'1313.1
2016-Feb-08 01:32N 50°35' E 000°13'3711.7
2016-Feb-07 22:24N 50°52' E 001°04'910.2
2016-Feb-07 21:33N 50°58' E 001°15'9 9.3
2016-Feb-07 20:33N 51°04' E 001°26'1111.4
2016-Feb-07 19:33N 51°10' E 001°41'1313.3
2016-Feb-07 18:33N 51°20' E 001°55'9 9.4
2016-Feb-07 17:33N 51°22' E 002°09'1211.6
2016-Feb-07 16:33N 51°22' E 002°28'10 9.4
2016-Feb-07 15:32N 51°23' E 002°43'1313.8
2016-Feb-07 14:33N 51°24' E 003°05'7 6.7
2016-Feb-07 13:33N 51°20' E 003°13'1 1.1
2016-Feb-07 12:33N 51°19' E 003°14'0 0.0
2016-Feb-07 11:33N 51°19' E 003°14'0 0.0
2016-Feb-07 10:33N 51°19' E 003°14'0 0.0
2016-Feb-07 09:33N 51°19' E 003°14'0 0.0
2016-Feb-07 08:33N 51°19' E 003°14'0 0.0
2016-Feb-07 07:33N 51°19' E 003°14'0 0.0
2016-Feb-07 06:33N 51°19' E 003°14'0 0.0
2016-Feb-07 05:33N 51°19' E 003°14'0 0.0
2016-Feb-07 04:33N 51°19' E 003°14'0 0.0
2016-Feb-07 03:33N 51°19' E 003°14'0 0.0
2016-Feb-07 02:33N 51°19' E 003°14'0 0.0
2016-Feb-07 01:33N 51°19' E 003°14'0 0.0
2016-Feb-07 00:33N 51°19' E 003°14'0 0.0
2016-Feb-06 23:33N 51°19' E 003°14'0 0.0
2016-Feb-06 22:33N 51°19' E 003°14'0 0.0
2016-Feb-06 21:33N 51°19' E 003°14'0 0.0
2016-Feb-06 20:33N 51°19' E 003°14'0 0.0
2016-Feb-06 19:33N 51°19' E 003°14'0 0.0
2016-Feb-06 18:33N 51°19' E 003°14'0 0.0
2016-Feb-06 17:33N 51°19' E 003°14'0 0.0
2016-Feb-06 16:33N 51°19' E 003°14'0 0.0
2016-Feb-06 15:33N 51°19' E 003°14'0 0.0
2016-Feb-06 14:33N 51°19' E 003°14'0 0.0
2016-Feb-06 13:33N 51°19' E 003°14'0 0.0
2016-Feb-06 12:33N 51°19' E 003°14'0 0.0
2016-Feb-06 11:33N 51°19' E 003°14'0 0.0
2016-Feb-06 10:33N 51°19' E 003°13'1 1.3
2016-Feb-06 09:33N 51°20' E 003°13'1311.7
2016-Feb-06 08:29N 51°25' E 002°54'9 9.3
2016-Feb-06 07:33N 51°28' E 002°41'4815.7
2016-Feb-06 04:31N 52°14' E 003°03'1717.0
2016-Feb-06 03:32N 52°27' E 003°19'5516.3
2016-Feb-06 00:09N 53°09' E 004°19'3016.6
2016-Feb-05 22:19N 53°36' E 004°40'1316.7
2016-Feb-05 21:33N 53°48' E 004°48'1616.5
2016-Feb-05 20:33N 54°04' E 004°58'1716.3
2016-Feb-05 19:33N 54°18' E 005°12'22416.5
2016-Feb-05 06:00N 57°24' E 008°54'5415.8 290 / 161015.010.8 4.7 7.4
2016-Feb-05 02:33N 57°49' E 010°24'1515.3
2016-Feb-05 01:33N 57°48' E 010°53'1616.5
2016-Feb-05 00:34N 57°39' E 011°18'1212.1
2016-Feb-04 23:34N 57°37' E 011°41'7 7.3
2016-Feb-04 22:33N 57°41' E 011°52'0 0.0
2016-Feb-04 21:29N 57°41' E 011°52'0 0.0
2016-Feb-04 20:32N 57°41' E 011°52'0 0.0
2016-Feb-04 19:32N 57°41' E 011°52'0 0.0
2016-Feb-04 18:32N 57°41' E 011°52'0 0.0
2016-Feb-04 17:32N 57°41' E 011°52'0 0.0
2016-Feb-04 16:32N 57°41' E 011°52'0 0.0
2016-Feb-04 15:32N 57°41' E 011°52'0 0.0
2016-Feb-04 14:32N 57°41' E 011°52'0 0.0
2016-Feb-04 13:32N 57°41' E 011°52'0 0.0
2016-Feb-04 12:31N 57°41' E 011°52'0 0.0
2016-Feb-04 11:31N 57°41' E 011°52'0 0.0
2016-Feb-04 10:31N 57°41' E 011°52'0 0.0
2016-Feb-04 09:31N 57°41' E 011°52'0 0.0
2016-Feb-04 08:31N 57°41' E 011°52'0 0.0
2016-Feb-04 07:31N 57°41' E 011°52'0 0.0
2016-Feb-04 06:31N 57°41' E 011°52'0 0.0
2016-Feb-04 05:31N 57°41' E 011°52'0 0.0
2016-Feb-04 04:33N 57°41' E 011°52'6 6.1
2016-Feb-04 03:34N 57°38' E 011°42'1110.8
2016-Feb-04 02:33N 57°40' E 011°22'1514.6
2016-Feb-04 01:33N 57°49' E 010°60'1212.0
2016-Feb-04 00:33N 57°51' E 010°38'16512.7
2016-Feb-03 11:34N 55°50' E 007°16'1514.3
2016-Feb-03 10:32N 55°36' E 007°07'1515.5
2016-Feb-03 09:33N 55°21' E 007°01'1716.5
2016-Feb-03 08:33N 55°05' E 007°05'1616.2
2016-Feb-03 07:33N 54°49' E 007°12'1616.1
2016-Feb-03 06:33N 54°34' E 007°20'1017.4
2016-Feb-03 06:00N 54°24' E 007°24'612.8 260 / 331002.610.8 6.0 7.1
2016-Feb-03 05:33N 54°19' E 007°27'1514.8
2016-Feb-03 04:33N 54°05' E 007°36'1413.6
2016-Feb-03 03:33N 53°53' E 007°47'8 8.3
2016-Feb-03 02:33N 53°51' E 008°01'1111.5
2016-Feb-03 01:33N 53°44' E 008°15'1413.5
2016-Feb-03 00:33N 53°34' E 008°32'1 0.7
2016-Feb-02 23:33N 53°35' E 008°33'0 0.0
2016-Feb-02 22:31N 53°35' E 008°33'0 0.0
2016-Feb-02 21:31N 53°35' E 008°33'0 0.0
2016-Feb-02 20:31N 53°35' E 008°33'0 0.0
2016-Feb-02 19:31N 53°35' E 008°33'0 0.0
2016-Feb-02 18:28N 53°35' E 008°33'0 0.0
2016-Feb-02 17:31N 53°35' E 008°33'0 0.0
2016-Feb-02 16:31N 53°35' E 008°33'0 0.0
2016-Feb-02 15:31N 53°35' E 008°33'0 0.0
2016-Feb-02 14:31N 53°35' E 008°33'0 0.0
2016-Feb-02 13:31N 53°35' E 008°33'0 0.0
2016-Feb-02 12:31N 53°35' E 008°33'0 0.0
2016-Feb-02 11:31N 53°35' E 008°33'0 0.0
2016-Feb-02 10:31N 53°35' E 008°33'0 0.0
2016-Feb-02 09:31N 53°35' E 008°33'0 0.0
2016-Feb-02 08:31N 53°35' E 008°33'0 0.0
2016-Feb-02 07:31N 53°35' E 008°33'0 0.0
2016-Feb-02 06:31N 53°35' E 008°33'  

Dump ship's entire track history